createdAt,value
2023-03-06T00:00:09.713Z,23.67
2023-03-06T00:01:09.756Z,23.67
2023-03-06T00:02:09.768Z,23.68
2023-03-06T00:03:09.820Z,23.67
2023-03-06T00:04:09.896Z,23.68
2023-03-06T00:05:09.869Z,23.67
2023-03-06T00:06:09.980Z,23.67
2023-03-06T00:07:09.888Z,23.67
2023-03-06T00:08:09.929Z,23.67
2023-03-06T00:09:09.974Z,23.67
2023-03-06T00:10:10.023Z,23.67
2023-03-06T00:11:10.063Z,23.67
2023-03-06T00:12:10.063Z,23.67
2023-03-06T00:13:10.081Z,23.68
2023-03-06T00:14:10.127Z,23.67
2023-03-06T00:15:10.152Z,23.66
2023-03-06T00:16:10.168Z,23.66
2023-03-06T00:17:10.174Z,23.66
2023-03-06T00:18:10.204Z,23.67
2023-03-06T00:19:10.226Z,23.66
2023-03-06T00:20:10.257Z,23.66
2023-03-06T00:21:10.261Z,23.66
2023-03-06T00:22:10.330Z,23.66
2023-03-06T00:23:10.346Z,23.66
2023-03-06T00:24:10.383Z,23.66
2023-03-06T00:25:10.433Z,23.66
2023-03-06T00:26:10.462Z,23.67
2023-03-06T00:27:10.541Z,23.66
2023-03-06T00:28:10.589Z,23.65
2023-03-06T00:29:10.616Z,23.65
2023-03-06T00:30:10.675Z,23.66
2023-03-06T00:31:10.742Z,23.66
2023-03-06T00:32:10.774Z,23.66
2023-03-06T00:33:10.787Z,23.66
2023-03-06T00:34:10.827Z,23.65
2023-03-06T00:35:10.825Z,23.66
2023-03-06T00:36:10.872Z,23.65
2023-03-06T00:37:10.920Z,23.65
2023-03-06T00:38:10.901Z,23.65
2023-03-06T00:39:10.908Z,23.65
2023-03-06T00:40:10.971Z,23.66
2023-03-06T00:41:10.927Z,23.66
2023-03-06T00:42:11.649Z,23.65
2023-03-06T00:43:10.986Z,23.66
2023-03-06T00:44:11.005Z,23.65
2023-03-06T00:45:11.045Z,23.65
2023-03-06T00:46:11.137Z,23.66
2023-03-06T00:47:11.103Z,23.66
2023-03-06T00:48:11.111Z,23.65
2023-03-06T00:49:11.085Z,23.65
2023-03-06T00:50:11.150Z,23.65
2023-03-06T00:51:13.862Z,23.65
2023-03-06T00:52:11.097Z,23.65
2023-03-06T00:53:11.102Z,23.66
2023-03-06T00:54:11.078Z,23.66
2023-03-06T00:55:11.116Z,23.65
2023-03-06T00:56:11.042Z,23.66
2023-03-06T00:57:11.058Z,23.66
2023-03-06T00:58:11.044Z,23.66
2023-03-06T00:59:11.025Z,23.65
2023-03-06T01:00:11.018Z,23.66
2023-03-06T01:01:11.058Z,23.66
2023-03-06T01:02:11.103Z,23.66
2023-03-06T01:03:11.013Z,23.66
2023-03-06T01:04:10.985Z,23.66
2023-03-06T01:05:10.956Z,23.65
2023-03-06T01:06:10.951Z,23.65
2023-03-06T01:07:10.931Z,23.65
2023-03-06T01:08:10.951Z,23.66
2023-03-06T01:09:10.929Z,23.65
2023-03-06T01:10:10.928Z,23.65
2023-03-06T01:11:10.930Z,23.65
2023-03-06T01:12:10.897Z,23.65
2023-03-06T01:13:10.907Z,23.65
2023-03-06T01:14:10.875Z,23.65
2023-03-06T01:15:10.892Z,23.65
2023-03-06T01:16:10.912Z,23.65
2023-03-06T01:17:10.889Z,23.64
2023-03-06T01:18:10.869Z,23.64
2023-03-06T01:19:10.922Z,23.64
2023-03-06T01:20:10.855Z,23.64
2023-03-06T01:21:10.848Z,23.65
2023-03-06T01:22:10.795Z,23.64
2023-03-06T01:23:10.804Z,23.65
2023-03-06T01:24:10.799Z,23.65
2023-03-06T01:25:10.793Z,23.64
2023-03-06T01:26:10.766Z,23.65
2023-03-06T01:27:10.777Z,23.64
2023-03-06T01:28:10.766Z,23.65
2023-03-06T01:29:10.752Z,23.65
2023-03-06T01:30:10.722Z,23.65
2023-03-06T01:31:10.728Z,23.65
2023-03-06T01:32:10.737Z,23.64
2023-03-06T01:33:10.700Z,23.64
2023-03-06T01:34:10.711Z,23.64
2023-03-06T01:35:10.716Z,23.64
2023-03-06T01:36:10.658Z,23.64
2023-03-06T01:37:10.666Z,23.64
2023-03-06T01:38:10.661Z,23.63
2023-03-06T01:39:10.666Z,23.64
2023-03-06T01:40:10.631Z,23.64
2023-03-06T01:41:10.656Z,23.64
2023-03-06T01:42:10.664Z,23.63
2023-03-06T01:43:10.654Z,23.63
2023-03-06T01:44:10.629Z,23.63
2023-03-06T01:45:10.620Z,23.63
2023-03-06T01:46:10.712Z,23.63
2023-03-06T01:47:10.595Z,23.64
2023-03-06T01:48:10.617Z,23.64
2023-03-06T01:49:10.568Z,23.63
2023-03-06T01:50:10.588Z,23.63
2023-03-06T01:51:10.553Z,23.63
2023-03-06T01:52:10.553Z,23.62
2023-03-06T01:53:10.577Z,23.62
2023-03-06T01:54:10.623Z,23.63
2023-03-06T01:55:10.625Z,23.63
2023-03-06T01:56:10.674Z,23.63
2023-03-06T01:57:10.699Z,23.63
2023-03-06T01:58:10.666Z,23.63
2023-03-06T01:59:10.716Z,23.63
2023-03-06T02:00:10.747Z,23.63
2023-03-06T02:01:10.786Z,23.63
2023-03-06T02:02:10.831Z,23.62
2023-03-06T02:03:10.799Z,23.63
2023-03-06T02:04:10.822Z,23.63
2023-03-06T02:05:10.823Z,23.63
2023-03-06T02:06:10.820Z,23.64
2023-03-06T02:07:10.867Z,23.65
2023-03-06T02:08:10.899Z,23.65
2023-03-06T02:09:10.972Z,23.66
2023-03-06T02:10:11.003Z,23.67
2023-03-06T02:11:11.070Z,23.68
2023-03-06T02:12:11.092Z,23.69
2023-03-06T02:13:11.114Z,23.70
2023-03-06T02:14:11.170Z,23.72
2023-03-06T02:15:11.676Z,23.73
2023-03-06T02:16:11.234Z,23.74
2023-03-06T02:17:11.270Z,23.77
2023-03-06T02:18:11.294Z,23.79
2023-03-06T02:19:11.348Z,23.81
2023-03-06T02:20:11.414Z,23.83
2023-03-06T02:21:11.475Z,23.84
2023-03-06T02:22:11.493Z,23.86
2023-03-06T02:23:11.510Z,23.88
2023-03-06T02:24:11.546Z,23.90
2023-03-06T02:25:11.616Z,23.93
2023-03-06T02:26:11.625Z,23.95
2023-03-06T02:27:12.199Z,23.96
2023-03-06T02:28:11.675Z,23.98
2023-03-06T02:29:11.735Z,24.00
2023-03-06T02:30:11.749Z,24.03
2023-03-06T02:31:11.813Z,24.05
2023-03-06T02:32:11.845Z,24.06
2023-03-06T02:33:11.828Z,24.08
2023-03-06T02:34:11.843Z,24.09
2023-03-06T02:35:11.899Z,24.11
2023-03-06T02:36:11.907Z,24.13
2023-03-06T02:37:11.939Z,24.16
2023-03-06T02:38:11.959Z,24.18
2023-03-06T02:39:11.978Z,24.19
2023-03-06T02:40:12.015Z,24.20
2023-03-06T02:41:12.044Z,24.23
2023-03-06T02:42:12.046Z,24.24
2023-03-06T02:43:12.057Z,24.25
2023-03-06T02:44:12.092Z,24.26
2023-03-06T02:45:12.134Z,24.27
2023-03-06T02:46:12.333Z,24.29
2023-03-06T02:47:12.188Z,24.30
2023-03-06T02:48:12.212Z,24.31
2023-03-06T02:49:12.209Z,24.31
2023-03-06T02:50:12.223Z,24.33
2023-03-06T02:51:12.281Z,24.34
2023-03-06T02:52:12.249Z,24.35
2023-03-06T02:53:12.282Z,24.36
2023-03-06T02:54:12.328Z,24.37
2023-03-06T02:55:12.359Z,24.38
2023-03-06T02:56:12.338Z,24.39
2023-03-06T02:57:12.416Z,24.39
2023-03-06T02:58:12.413Z,24.40
2023-03-06T02:59:12.410Z,24.41
2023-03-06T03:00:12.430Z,24.42
2023-03-06T03:01:12.497Z,24.43
2023-03-06T03:02:12.466Z,24.44
2023-03-06T03:03:12.487Z,24.45
2023-03-06T03:04:12.536Z,24.46
2023-03-06T03:05:12.537Z,24.46
2023-03-06T03:06:12.582Z,24.46
2023-03-06T03:07:12.572Z,24.46
2023-03-06T03:08:12.586Z,24.47
2023-03-06T03:09:12.597Z,24.48
2023-03-06T03:10:12.612Z,24.48
2023-03-06T03:11:12.619Z,24.49
2023-03-06T03:12:12.637Z,24.51
2023-03-06T03:13:12.656Z,24.52
2023-03-06T03:14:12.738Z,24.53
2023-03-06T03:15:12.668Z,24.53
2023-03-06T03:16:12.703Z,24.53
2023-03-06T03:17:12.690Z,24.53
2023-03-06T03:18:12.680Z,24.55
2023-03-06T03:19:12.742Z,24.55
2023-03-06T03:20:12.746Z,24.56
2023-03-06T03:21:12.778Z,24.57
2023-03-06T03:22:12.788Z,24.56
2023-03-06T03:23:12.786Z,24.57
2023-03-06T03:24:12.807Z,24.58
2023-03-06T03:25:12.823Z,24.58
2023-03-06T03:26:12.840Z,24.59
2023-03-06T03:27:12.861Z,24.60
2023-03-06T03:28:12.857Z,24.60
2023-03-06T03:29:12.880Z,24.61
2023-03-06T03:30:12.893Z,24.62
2023-03-06T03:31:12.953Z,24.62
2023-03-06T03:32:12.939Z,24.62
2023-03-06T03:33:12.964Z,24.63
2023-03-06T03:34:12.964Z,24.64
2023-03-06T03:35:12.991Z,24.65
2023-03-06T03:36:12.988Z,24.65
2023-03-06T03:37:13.012Z,24.65
2023-03-06T03:38:13.006Z,24.66
2023-03-06T03:39:13.001Z,24.66
2023-03-06T03:40:13.054Z,24.67
2023-03-06T03:41:13.084Z,24.67
2023-03-06T03:42:13.051Z,24.68
2023-03-06T03:43:13.028Z,24.68
2023-03-06T03:44:13.083Z,24.68
2023-03-06T03:45:13.086Z,24.69
2023-03-06T03:46:13.090Z,24.69
2023-03-06T03:47:13.080Z,24.68
2023-03-06T03:48:13.071Z,24.70
2023-03-06T03:49:13.092Z,24.70
2023-03-06T03:50:13.102Z,24.70
2023-03-06T03:51:13.071Z,24.71
2023-03-06T03:52:13.093Z,24.72
2023-03-06T03:53:13.112Z,24.73
2023-03-06T03:54:13.153Z,24.73
2023-03-06T03:55:13.120Z,24.75
2023-03-06T03:56:13.141Z,24.75
2023-03-06T03:57:13.146Z,24.75
2023-03-06T03:58:13.152Z,24.75
2023-03-06T03:59:13.171Z,24.75
2023-03-06T04:00:13.181Z,24.76
2023-03-06T04:01:13.168Z,24.77
2023-03-06T04:02:13.222Z,24.77
2023-03-06T04:03:13.201Z,24.78
2023-03-06T04:04:13.207Z,24.78
2023-03-06T04:05:13.247Z,24.79
2023-03-06T04:06:13.183Z,24.79
2023-03-06T04:07:13.210Z,24.81
2023-03-06T04:08:13.206Z,24.81
2023-03-06T04:09:13.211Z,24.80
2023-03-06T04:10:13.217Z,24.81
2023-03-06T04:11:13.211Z,24.81
2023-03-06T04:12:13.244Z,24.81
2023-03-06T04:13:13.239Z,24.81
2023-03-06T04:14:13.227Z,24.81
2023-03-06T04:15:13.242Z,24.80
2023-03-06T04:16:13.301Z,24.80
2023-03-06T04:17:13.248Z,24.80
2023-03-06T04:18:13.229Z,24.80
2023-03-06T04:19:13.236Z,24.78
2023-03-06T04:20:13.224Z,24.79
2023-03-06T04:21:13.227Z,24.78
2023-03-06T04:22:13.248Z,24.78
2023-03-06T04:23:13.227Z,24.77
2023-03-06T04:24:13.245Z,24.78
2023-03-06T04:25:13.236Z,24.77
2023-03-06T04:26:13.227Z,24.77
2023-03-06T04:27:13.220Z,24.78
2023-03-06T04:28:13.222Z,24.77
2023-03-06T04:29:13.254Z,24.77
2023-03-06T04:30:13.234Z,24.77
2023-03-06T04:31:13.293Z,24.77
2023-03-06T04:32:13.306Z,24.77
2023-03-06T04:33:13.254Z,24.78
2023-03-06T04:34:13.289Z,24.78
2023-03-06T04:35:13.273Z,24.79
2023-03-06T04:36:13.257Z,24.77
2023-03-06T04:37:13.260Z,24.77
2023-03-06T04:38:13.277Z,24.76
2023-03-06T04:39:13.290Z,24.75
2023-03-06T04:40:13.288Z,24.76
2023-03-06T04:41:13.288Z,24.76
2023-03-06T04:42:13.329Z,24.75
2023-03-06T04:43:13.315Z,24.75
2023-03-06T04:44:13.318Z,24.74
2023-03-06T04:45:13.288Z,24.74
2023-03-06T04:46:13.332Z,24.74
2023-03-06T04:47:13.313Z,24.75
2023-03-06T04:48:13.294Z,24.76
2023-03-06T04:49:13.325Z,24.76
2023-03-06T04:50:13.336Z,24.77
2023-03-06T04:51:13.348Z,24.77
2023-03-06T04:52:13.362Z,24.76
2023-03-06T04:53:13.317Z,24.76
2023-03-06T04:54:13.333Z,24.76
2023-03-06T04:55:13.357Z,24.76
2023-03-06T04:56:13.336Z,24.75
2023-03-06T04:57:13.359Z,24.75
2023-03-06T04:58:13.360Z,24.74
2023-03-06T04:59:13.386Z,24.75
2023-03-06T05:00:13.397Z,24.73
2023-03-06T05:01:13.427Z,24.73
2023-03-06T05:02:13.394Z,24.73
2023-03-06T05:03:13.390Z,24.72
2023-03-06T05:04:13.378Z,24.71
2023-03-06T05:05:13.342Z,24.71
2023-03-06T05:06:13.357Z,24.70
2023-03-06T05:07:13.344Z,24.70
2023-03-06T05:08:13.338Z,24.70
2023-03-06T05:09:13.354Z,24.70
2023-03-06T05:10:13.364Z,24.70
2023-03-06T05:11:13.351Z,24.70
2023-03-06T05:12:13.332Z,24.69
2023-03-06T05:13:13.376Z,24.68
2023-03-06T05:14:13.377Z,24.68
2023-03-06T05:15:13.338Z,24.67
2023-03-06T05:16:13.390Z,24.66
2023-03-06T05:17:13.357Z,24.66
2023-03-06T05:18:13.371Z,24.67
2023-03-06T05:19:13.371Z,24.66
2023-03-06T05:20:13.343Z,24.64
2023-03-06T05:21:13.344Z,24.64
2023-03-06T05:22:13.358Z,24.64
2023-03-06T05:23:13.393Z,24.65
2023-03-06T05:24:13.351Z,24.64
2023-03-06T05:25:13.369Z,24.64
2023-03-06T05:26:13.328Z,24.65
2023-03-06T05:27:15.205Z,24.65
2023-03-06T05:28:13.344Z,24.63
2023-03-06T05:29:13.326Z,24.63
2023-03-06T05:30:13.305Z,24.63
2023-03-06T05:31:13.295Z,24.63
2023-03-06T05:32:13.412Z,24.64
2023-03-06T05:33:13.261Z,24.63
2023-03-06T05:34:13.224Z,24.64
2023-03-06T05:35:13.470Z,24.64
2023-03-06T05:36:13.170Z,24.64
2023-03-06T05:37:13.170Z,24.65
2023-03-06T05:38:13.140Z,24.64
2023-03-06T05:39:13.146Z,24.63
2023-03-06T05:40:13.099Z,24.64
2023-03-06T05:41:13.086Z,24.63
2023-03-06T05:42:13.050Z,24.63
2023-03-06T05:43:13.048Z,24.62
2023-03-06T05:44:12.993Z,24.63
2023-03-06T05:45:12.985Z,24.63
2023-03-06T05:46:13.039Z,24.62
2023-03-06T05:47:12.941Z,24.62
2023-03-06T05:48:12.931Z,24.62
2023-03-06T05:49:12.914Z,24.62
2023-03-06T05:50:12.862Z,24.63
2023-03-06T05:51:12.848Z,24.64
2023-03-06T05:52:12.809Z,24.63
2023-03-06T05:53:12.806Z,24.63
2023-03-06T05:54:12.746Z,24.63
2023-03-06T05:55:12.742Z,24.62
2023-03-06T05:56:12.715Z,24.61
2023-03-06T05:57:12.735Z,24.62
2023-03-06T05:58:12.630Z,24.61
2023-03-06T05:59:12.641Z,24.60
2023-03-06T06:00:12.598Z,24.60
2023-03-06T06:01:19.774Z,24.62
2023-03-06T06:02:12.606Z,24.61
2023-03-06T06:03:12.611Z,24.61
2023-03-06T06:04:12.544Z,24.61
2023-03-06T06:05:13.169Z,24.61
2023-03-06T06:06:12.501Z,24.62
2023-03-06T06:07:12.471Z,24.61
2023-03-06T06:08:12.422Z,24.61
2023-03-06T06:09:13.966Z,24.61
2023-03-06T06:10:12.477Z,24.61
2023-03-06T06:11:12.466Z,24.60
2023-03-06T06:12:12.442Z,24.61
2023-03-06T06:13:12.424Z,24.60
2023-03-06T06:14:12.343Z,24.61
2023-03-06T06:15:12.308Z,24.62
2023-03-06T06:16:12.387Z,24.62
2023-03-06T06:17:12.266Z,24.62
2023-03-06T06:18:12.258Z,24.62
2023-03-06T06:19:12.214Z,24.63
2023-03-06T06:20:12.228Z,24.62
2023-03-06T06:21:12.231Z,24.63
2023-03-06T06:22:12.198Z,24.62
2023-03-06T06:23:12.139Z,24.62
2023-03-06T06:24:12.124Z,24.62
2023-03-06T06:25:12.101Z,24.62
2023-03-06T06:26:12.119Z,24.61
2023-03-06T06:27:12.079Z,24.63
2023-03-06T06:28:12.079Z,24.63
2023-03-06T06:29:12.040Z,24.63
2023-03-06T06:30:12.803Z,24.62
2023-03-06T06:31:12.304Z,24.64
2023-03-06T06:32:12.045Z,24.65
2023-03-06T06:33:12.013Z,24.62
2023-03-06T06:34:11.967Z,24.59
2023-03-06T06:35:11.938Z,24.55
2023-03-06T06:36:12.331Z,24.51
2023-03-06T06:37:11.937Z,24.49
2023-03-06T06:38:12.062Z,24.45
2023-03-06T06:39:11.892Z,24.42
2023-03-06T06:40:11.896Z,24.42
2023-03-06T06:41:38.937Z,24.39
2023-03-06T06:42:30.493Z,24.36
2023-03-06T06:43:12.841Z,24.33
2023-03-06T06:44:11.859Z,24.28
2023-03-06T06:45:11.862Z,24.29
2023-03-06T06:46:53.384Z,24.25
2023-03-06T06:47:28.148Z,24.25
2023-03-06T06:48:12.898Z,24.28
2023-03-06T06:49:11.862Z,24.35
2023-03-06T06:50:11.864Z,24.44
2023-03-06T06:51:11.785Z,24.51
2023-03-06T06:52:11.884Z,24.59
2023-03-06T06:53:11.753Z,24.65
2023-03-06T06:54:11.735Z,24.70
2023-03-06T06:55:11.718Z,24.74
2023-03-06T06:56:11.673Z,24.79
2023-03-06T06:57:11.830Z,24.82
2023-03-06T06:58:11.679Z,24.84
2023-03-06T06:59:17.152Z,24.87
2023-03-06T07:00:12.613Z,24.88
2023-03-06T07:01:11.625Z,24.92
2023-03-06T07:02:11.562Z,24.94
2023-03-06T07:03:11.535Z,24.96
2023-03-06T07:04:11.563Z,24.97
2023-03-06T07:05:11.516Z,24.99
2023-03-06T07:06:11.502Z,25.01
2023-03-06T07:07:11.477Z,25.03
2023-03-06T07:08:11.445Z,25.04
2023-03-06T07:09:11.435Z,25.06
2023-03-06T07:10:11.417Z,25.08
2023-03-06T07:11:11.380Z,25.09
2023-03-06T07:12:11.377Z,25.11
2023-03-06T07:13:11.426Z,25.11
2023-03-06T07:14:11.505Z,25.13
2023-03-06T07:15:11.477Z,25.14
2023-03-06T07:16:12.489Z,25.15
2023-03-06T07:17:11.823Z,25.16
2023-03-06T07:18:11.583Z,25.18
2023-03-06T07:19:11.569Z,25.19
2023-03-06T07:20:11.598Z,25.20
2023-03-06T07:21:11.649Z,25.22
2023-03-06T07:22:11.668Z,25.23
2023-03-06T07:23:11.672Z,25.25
2023-03-06T07:24:11.676Z,25.26
2023-03-06T07:25:11.670Z,25.27
2023-03-06T07:26:11.737Z,25.27
2023-03-06T07:27:11.742Z,25.28
2023-03-06T07:28:11.756Z,25.30
2023-03-06T07:29:11.780Z,25.30
2023-03-06T07:30:11.775Z,25.30
2023-03-06T07:31:11.810Z,25.32
2023-03-06T07:32:11.810Z,25.33
2023-03-06T07:33:11.796Z,25.35
2023-03-06T07:34:11.801Z,25.36
2023-03-06T07:35:19.687Z,25.38
2023-03-06T07:36:13.925Z,25.39
2023-03-06T07:37:11.865Z,25.40
2023-03-06T07:38:11.734Z,25.40
2023-03-06T07:39:11.673Z,25.38
2023-03-06T07:40:11.745Z,25.38
2023-03-06T07:41:11.638Z,25.36
2023-03-06T07:42:11.592Z,25.35
2023-03-06T07:43:19.029Z,25.34
2023-03-06T07:44:12.600Z,25.34
2023-03-06T07:45:11.551Z,25.34
2023-03-06T07:46:11.554Z,25.36
2023-03-06T07:47:11.557Z,25.36
2023-03-06T07:48:11.454Z,25.37
2023-03-06T07:49:11.403Z,25.38
2023-03-06T07:50:11.373Z,25.40
2023-03-06T07:51:11.344Z,25.41
2023-03-06T07:52:11.353Z,25.42
2023-03-06T07:53:11.655Z,25.43
2023-03-06T07:54:11.286Z,25.45
2023-03-06T07:55:11.240Z,25.46
2023-03-06T07:56:11.194Z,25.46
2023-03-06T07:57:11.398Z,25.46
2023-03-06T07:58:11.197Z,25.45
2023-03-06T07:59:11.230Z,25.44
2023-03-06T08:00:11.179Z,25.42
2023-03-06T08:01:11.232Z,25.40
2023-03-06T08:02:11.229Z,25.39
2023-03-06T08:03:11.258Z,25.38
2023-03-06T08:04:11.254Z,25.38
2023-03-06T08:05:11.292Z,25.37
2023-03-06T08:06:11.296Z,25.36
2023-03-06T08:07:11.384Z,25.35
2023-03-06T08:08:11.370Z,25.34
2023-03-06T08:09:11.331Z,25.33
2023-03-06T08:10:11.324Z,25.34
2023-03-06T08:11:11.409Z,25.34
2023-03-06T08:12:11.356Z,25.34
2023-03-06T08:13:11.414Z,25.32
2023-03-06T08:14:11.429Z,25.31
2023-03-06T08:15:11.524Z,25.30
2023-03-06T08:16:11.495Z,25.29
2023-03-06T08:17:11.890Z,25.29
2023-03-06T08:18:11.512Z,25.27
2023-03-06T08:19:11.551Z,25.27
2023-03-06T08:20:11.556Z,25.27
2023-03-06T08:21:11.551Z,25.26
2023-03-06T08:22:11.600Z,25.24
2023-03-06T08:23:11.584Z,25.25
2023-03-06T08:24:11.620Z,25.24
2023-03-06T08:25:11.646Z,25.22
2023-03-06T08:26:11.678Z,25.24
2023-03-06T08:27:11.666Z,25.24
2023-03-06T08:28:11.664Z,25.22
2023-03-06T08:29:11.714Z,25.23
2023-03-06T08:30:11.742Z,25.24
2023-03-06T08:31:11.763Z,25.25
2023-03-06T08:32:11.984Z,25.26
2023-03-06T08:33:11.889Z,25.23
2023-03-06T08:34:12.165Z,24.79
2023-03-06T08:35:11.864Z,23.59
2023-03-06T08:36:11.906Z,22.39
2023-03-06T08:37:12.657Z,22.06
2023-03-06T08:38:12.024Z,22.10
2023-03-06T08:39:11.986Z,22.29
2023-03-06T08:40:12.012Z,22.49
2023-03-06T08:41:12.071Z,22.70
2023-03-06T08:42:12.085Z,22.63
2023-03-06T08:43:14.117Z,22.43
2023-03-06T08:44:12.203Z,22.48
2023-03-06T08:45:12.179Z,22.61
2023-03-06T08:46:12.234Z,22.77
2023-03-06T08:47:12.276Z,22.94
2023-03-06T08:48:12.405Z,23.11
2023-03-06T08:49:12.306Z,23.29
2023-03-06T08:50:12.293Z,23.46
2023-03-06T08:51:12.405Z,23.65
2023-03-06T08:52:12.411Z,23.82
2023-03-06T08:53:12.901Z,24.00
2023-03-06T08:54:12.464Z,24.14
2023-03-06T08:56:12.518Z,24.38
2023-03-06T08:57:12.517Z,24.49
2023-03-06T08:58:12.464Z,24.59
2023-03-06T08:59:12.533Z,24.67
2023-03-06T09:00:12.508Z,24.74
2023-03-06T09:01:12.521Z,24.80
2023-03-06T09:02:12.487Z,24.86
2023-03-06T09:03:12.884Z,24.92
2023-03-06T09:04:12.565Z,24.96
2023-03-06T09:41:13.036Z,23.03
2023-03-06T09:42:12.952Z,23.20
2023-03-06T09:43:12.997Z,23.38
2023-03-06T09:44:13.040Z,23.54
2023-03-06T09:45:13.105Z,23.67
2023-03-06T09:46:13.205Z,23.79
2023-03-06T09:47:13.227Z,23.90
2023-03-06T09:48:13.236Z,24.00
2023-03-06T09:49:13.299Z,24.08
2023-03-06T09:50:13.344Z,24.16
2023-03-06T09:51:13.367Z,24.24
2023-03-06T09:52:13.367Z,24.31
2023-03-06T09:53:13.377Z,24.39
2023-03-06T09:54:13.431Z,24.50
2023-03-06T09:55:13.450Z,24.64
2023-03-06T09:56:13.419Z,24.75
2023-03-06T09:57:13.440Z,24.87
2023-03-06T09:58:13.458Z,24.98
2023-03-06T09:59:13.493Z,25.05
2023-03-06T10:00:13.494Z,25.13
2023-03-06T10:01:13.528Z,25.21
2023-03-06T10:02:13.670Z,25.31
2023-03-06T10:03:13.658Z,25.39
2023-03-06T10:04:13.594Z,25.47
2023-03-06T10:05:13.661Z,25.53
2023-03-06T10:06:13.709Z,25.58
2023-03-06T10:07:13.598Z,25.61
2023-03-06T10:08:13.934Z,25.64
2023-03-06T10:09:13.574Z,25.67
2023-03-06T10:10:13.623Z,25.70
2023-03-06T10:11:13.633Z,25.73
2023-03-06T10:12:13.577Z,25.75
2023-03-06T10:13:13.601Z,25.77
2023-03-06T10:14:13.607Z,25.78
2023-03-06T10:15:13.606Z,25.80
2023-03-06T10:16:13.642Z,25.83
2023-03-06T10:17:13.600Z,25.86
2023-03-06T10:18:13.622Z,25.89
2023-03-06T10:19:13.615Z,25.90
2023-03-06T10:20:13.605Z,25.91
2023-03-06T10:21:19.231Z,25.89
2023-03-06T10:22:14.921Z,25.86
2023-03-06T10:23:14.029Z,25.85
2023-03-06T10:24:13.480Z,25.82
2023-03-06T10:25:13.449Z,25.82
2023-03-06T10:26:13.495Z,25.80
2023-03-06T10:27:13.501Z,25.80
2023-03-06T10:28:13.355Z,25.78
2023-03-06T10:29:13.339Z,25.77
2023-03-06T10:30:13.316Z,25.75
2023-03-06T10:31:13.296Z,25.74
2023-03-06T10:32:13.970Z,25.72
2023-03-06T10:33:13.194Z,25.72
2023-03-06T10:35:13.147Z,25.71
2023-03-06T11:43:12.277Z,26.10
2023-03-06T11:46:12.195Z,26.11
2023-03-06T11:47:12.089Z,26.12
2023-03-06T11:48:12.089Z,26.13
2023-03-06T11:50:11.968Z,26.15
2023-03-06T11:51:11.932Z,26.17
2023-03-06T11:52:11.881Z,26.17
2023-03-06T11:53:11.897Z,26.17
2023-03-06T11:54:11.818Z,26.19
2023-03-06T11:56:11.740Z,26.18
2023-03-06T11:57:11.714Z,26.16
2023-03-06T11:58:11.653Z,26.17
2023-03-06T11:59:11.642Z,26.17
2023-03-06T12:01:11.575Z,26.18
2023-03-06T12:02:11.667Z,26.17
2023-03-06T12:03:11.478Z,26.17
2023-03-06T12:04:11.455Z,26.18
2023-03-06T12:05:11.499Z,26.18
2023-03-06T12:06:11.393Z,26.19
2023-03-06T12:07:11.348Z,26.18
2023-03-06T12:08:11.347Z,26.17
2023-03-06T12:09:11.338Z,26.17
2023-03-06T12:10:11.247Z,26.17
2023-03-06T12:11:11.239Z,26.16
2023-03-06T12:12:11.175Z,26.16
2023-03-06T12:13:11.127Z,26.15
2023-03-06T12:14:11.111Z,26.13
2023-03-06T12:16:11.079Z,26.13
2023-03-06T12:17:10.995Z,26.12
2023-03-06T12:18:11.957Z,26.12
2023-03-06T12:19:10.898Z,26.12
2023-03-06T12:21:10.829Z,26.10
2023-03-06T12:22:10.790Z,26.09
2023-03-06T12:31:10.494Z,25.95
2023-03-06T13:28:10.200Z,25.73
2023-03-06T13:32:10.241Z,25.70
2023-03-06T13:49:10.248Z,25.70
2023-03-06T14:06:10.312Z,25.63
2023-03-06T14:09:10.336Z,25.62
2023-03-06T14:10:10.468Z,25.61
2023-03-06T14:11:10.354Z,25.61
2023-03-06T14:12:10.501Z,25.58
2023-03-06T14:13:10.366Z,25.57
2023-03-06T14:14:10.340Z,25.58
2023-03-06T14:15:10.402Z,25.57
2023-03-06T14:16:10.475Z,25.56
2023-03-06T14:17:10.385Z,25.56
2023-03-06T14:18:10.413Z,25.55
2023-03-06T14:19:10.396Z,25.53
2023-03-06T14:20:10.537Z,25.51
2023-03-06T14:21:10.457Z,25.48
2023-03-06T14:22:10.598Z,25.41
2023-03-06T14:23:10.515Z,25.37
2023-03-06T14:24:10.559Z,25.35
2023-03-06T14:25:10.520Z,25.35
2023-03-06T14:26:10.547Z,25.39
2023-03-06T14:27:10.554Z,25.43
2023-03-06T14:28:14.324Z,25.46
2023-03-06T14:29:10.541Z,25.49
2023-03-06T14:30:10.570Z,25.51
2023-03-06T14:31:10.510Z,25.50
2023-03-06T14:32:10.542Z,25.48
2023-03-06T14:33:10.437Z,25.47
2023-03-06T14:34:10.409Z,25.46
2023-03-06T14:35:10.376Z,25.43
2023-03-06T14:36:10.334Z,25.39
2023-03-06T14:37:10.287Z,25.34
2023-03-06T14:38:10.259Z,25.28
2023-03-06T14:39:10.231Z,25.23
2023-03-06T14:40:10.208Z,25.22
2023-03-06T14:41:11.730Z,25.24
2023-03-06T14:42:10.443Z,25.26
2023-03-06T14:43:10.431Z,25.30
2023-03-06T14:44:10.482Z,25.36
2023-03-06T14:45:10.480Z,25.44
2023-03-06T14:46:10.512Z,25.50
2023-03-06T14:47:10.514Z,25.55
2023-03-06T14:48:10.543Z,25.59
2023-03-06T14:49:10.513Z,25.63
2023-03-06T14:50:10.522Z,25.66
2023-03-06T14:51:10.529Z,25.67
2023-03-06T14:52:10.506Z,25.70
2023-03-06T14:53:10.539Z,25.72
2023-03-06T14:54:10.546Z,25.74
2023-03-06T14:55:10.510Z,25.76
2023-03-06T14:56:10.489Z,25.78
2023-03-06T14:57:10.463Z,25.79
2023-03-06T14:58:10.467Z,25.80
2023-03-06T14:59:10.440Z,25.81
2023-03-06T15:00:10.465Z,25.82
2023-03-06T15:01:10.450Z,25.83
2023-03-06T15:02:10.421Z,25.86
2023-03-06T15:03:10.441Z,25.86
2023-03-06T15:04:10.424Z,25.88
2023-03-06T15:05:10.389Z,25.89
2023-03-06T15:06:10.394Z,25.91
2023-03-06T15:07:10.442Z,25.91
2023-03-06T15:08:10.373Z,25.91
2023-03-06T15:09:10.331Z,25.93
2023-03-06T15:10:10.435Z,25.93
2023-03-06T15:11:10.350Z,25.93
2023-03-06T15:12:10.327Z,25.94
2023-03-06T15:13:10.337Z,25.94
2023-03-06T15:14:10.293Z,25.87
2023-03-06T15:15:10.540Z,25.41
2023-03-06T15:16:10.404Z,24.80
2023-03-06T15:17:10.393Z,24.42
2023-03-06T15:18:10.419Z,24.19
2023-03-06T15:19:10.403Z,23.83
2023-03-06T15:20:10.430Z,23.51
2023-03-06T15:21:10.461Z,23.23
2023-03-06T15:22:10.483Z,23.25
2023-03-06T15:23:10.505Z,23.35
2023-03-06T15:24:10.544Z,23.48
2023-03-06T15:25:10.555Z,23.62
2023-03-06T15:26:10.644Z,23.77
2023-03-06T15:27:10.601Z,23.91
2023-03-06T15:28:10.624Z,24.06
2023-03-06T15:29:11.022Z,24.21
2023-03-06T15:30:11.543Z,24.34
2023-03-06T15:31:10.745Z,24.47
2023-03-06T15:32:10.705Z,24.59
2023-03-06T15:33:10.773Z,24.69
2023-03-06T15:34:10.663Z,24.80
2023-03-06T15:35:10.670Z,24.91
2023-03-06T15:36:10.724Z,24.99
2023-03-06T15:37:11.484Z,25.07
2023-03-06T15:38:10.750Z,25.13
2023-03-06T15:39:10.790Z,25.18
2023-03-06T15:40:10.769Z,25.25
2023-03-06T15:41:10.822Z,25.30
2023-03-06T15:42:10.823Z,25.34
2023-03-06T15:43:10.857Z,25.38
2023-03-06T15:44:10.908Z,25.42
2023-03-06T15:45:10.906Z,25.46
2023-03-06T15:46:10.900Z,25.49
2023-03-06T15:47:10.880Z,25.51
2023-03-06T15:48:10.893Z,25.54
2023-03-06T15:49:10.891Z,25.57
2023-03-06T15:50:10.905Z,25.58
2023-03-06T15:51:10.911Z,25.59
2023-03-06T15:52:10.951Z,25.61
2023-03-06T15:53:10.924Z,25.62
2023-03-06T15:54:12.597Z,25.63
2023-03-06T15:55:10.893Z,25.65
2023-03-06T15:56:10.932Z,25.66
2023-03-06T15:57:10.902Z,25.67
2023-03-06T15:58:10.908Z,25.68
2023-03-06T15:59:10.889Z,25.69
2023-03-06T16:00:25.311Z,25.71
2023-03-06T16:01:11.896Z,25.71
2023-03-06T16:02:10.849Z,25.73
2023-03-06T16:03:10.785Z,25.73
2023-03-06T16:04:10.816Z,25.74
2023-03-06T16:05:10.762Z,25.75
2023-03-06T16:06:10.693Z,25.76
2023-03-06T16:07:10.682Z,25.77
2023-03-06T16:08:10.669Z,25.78
2023-03-06T16:09:10.661Z,25.78
2023-03-06T16:10:10.641Z,25.79
2023-03-06T16:11:10.581Z,25.79
2023-03-06T16:12:10.569Z,25.80
2023-03-06T16:13:10.569Z,25.78
2023-03-06T16:14:10.544Z,25.77
2023-03-06T16:15:10.473Z,25.74
2023-03-06T16:16:10.457Z,25.70
2023-03-06T16:17:10.413Z,25.56
2023-03-06T16:18:10.411Z,25.19
2023-03-06T16:19:13.978Z,24.79
2023-03-06T16:20:11.386Z,24.45
2023-03-06T16:21:10.376Z,24.25
2023-03-06T16:22:10.357Z,24.11
2023-03-06T16:23:10.408Z,24.04
2023-03-06T16:24:10.380Z,23.87
2023-03-06T16:25:10.340Z,23.68